sensor_id;sensor_type;location;lat;lon;timestamp;pressure;altitude;pressure_sealevel;temperature;humidity
57799;BME280;43626;53.866;30.298;2023-08-08T00:00:36;1012.9;;;19.3;62.4
57799;BME280;43626;53.866;30.298;2023-08-08T00:05:46;1012.9;;;19.3;62.3
57799;BME280;43626;53.866;30.298;2023-08-08T00:10:54;1012.9;;;19.3;61.7
57799;BME280;43626;53.866;30.298;2023-08-08T00:15:22;1013;;;19.2;61.5
57799;BME280;43626;53.866;30.298;2023-08-08T00:20:22;1013.1;;;19.1;61.6
57799;BME280;43626;53.866;30.298;2023-08-08T00:25:46;1013.1;;;19.1;61.9
57799;BME280;43626;53.866;30.298;2023-08-08T00:30:46;1013.3;;;19.2;61.4
57799;BME280;43626;53.866;30.298;2023-08-08T00:35:36;1013.4;;;19.2;61.4
57799;BME280;43626;53.866;30.298;2023-08-08T00:40:52;1013.4;;;19.2;61.3
57799;BME280;43626;53.866;30.298;2023-08-08T00:46:02;1013.5;;;19.2;61.4
57799;BME280;43626;53.866;30.298;2023-08-08T00:50:30;1013.6;;;19.3;60.9
57799;BME280;43626;53.866;30.298;2023-08-08T00:55:22;1013.6;;;19.2;60.7
57799;BME280;43626;53.866;30.298;2023-08-08T01:01:02;1013.6;;;19.2;60.6
57799;BME280;43626;53.866;30.298;2023-08-08T01:05:38;1013.6;;;19.1;60.6
57799;BME280;43626;53.866;30.298;2023-08-08T01:10:37;1013.6;;;19.2;60.3
57799;BME280;43626;53.866;30.298;2023-08-08T01:15:22;1013.7;;;19.2;60.1
57799;BME280;43626;53.866;30.298;2023-08-08T01:20:40;1013.8;;;19.2;60.1
57799;BME280;43626;53.866;30.298;2023-08-08T01:25:22;1013.9;;;19.1;60.1
57799;BME280;43626;53.866;30.298;2023-08-08T01:30:28;1013.9;;;19.1;60
57799;BME280;43626;53.866;30.298;2023-08-08T01:35:56;1014;;;19;60.3
57799;BME280;43626;53.866;30.298;2023-08-08T01:40:52;1014;;;19;60.4
57799;BME280;43626;53.866;30.298;2023-08-08T01:45:36;1014.1;;;19;60.2
57799;BME280;43626;53.866;30.298;2023-08-08T01:50:22;1014.3;;;19.1;60.1
57799;BME280;43626;53.866;30.298;2023-08-08T01:56:02;1014.3;;;19;60
57799;BME280;43626;53.866;30.298;2023-08-08T02:00:28;1014.4;;;19;59.5
57799;BME280;43626;53.866;30.298;2023-08-08T02:05:28;1014.5;;;18.9;59.6
57799;BME280;43626;53.866;30.298;2023-08-08T02:10:52;1014.6;;;19;59.4
57799;BME280;43626;53.866;30.298;2023-08-08T02:15:52;1014.6;;;19;59.8
57799;BME280;43626;53.866;30.298;2023-08-08T02:21:02;1014.6;;;19;60
57799;BME280;43626;53.866;30.298;2023-08-08T02:25:42;1014.6;;;19;59.3
57799;BME280;43626;53.866;30.298;2023-08-08T02:30:28;1014.7;;;18.9;60
57799;BME280;43626;53.866;30.298;2023-08-08T02:35:28;1014.7;;;18.8;60
57799;BME280;43626;53.866;30.298;2023-08-08T02:41:02;1014.8;;;18.7;60.2
57799;BME280;43626;53.866;30.298;2023-08-08T02:45:52;1014.9;;;18.6;60.4
57799;BME280;43626;53.866;30.298;2023-08-08T02:50:50;1015;;;18.6;60.6
57799;BME280;43626;53.866;30.298;2023-08-08T02:56:02;1015;;;18.5;60.6
57799;BME280;43626;53.866;30.298;2023-08-08T03:00:44;1015;;;18.4;60.9
57799;BME280;43626;53.866;30.298;2023-08-08T03:05:43;1014.9;;;18.3;61.1
57799;BME280;43626;53.866;30.298;2023-08-08T03:10:28;1014.9;;;18.3;61
57799;BME280;43626;53.866;30.298;2023-08-08T03:16:02;1014.9;;;18.3;61.2
57799;BME280;43626;53.866;30.298;2023-08-08T03:21:02;1014.9;;;18.3;61.1
57799;BME280;43626;53.866;30.298;2023-08-08T03:26:02;1015;;;18.4;61
57799;BME280;43626;53.866;30.298;2023-08-08T03:31:02;1015;;;18.4;60.9
57799;BME280;43626;53.866;30.298;2023-08-08T03:35:52;1015.2;;;18.5;60.7
57799;BME280;43626;53.866;30.298;2023-08-08T03:40:36;1015.3;;;18.7;60.5
57799;BME280;43626;53.866;30.298;2023-08-08T03:45:52;1015.3;;;18.7;60.1
57799;BME280;43626;53.866;30.298;2023-08-08T03:51:02;1015.3;;;18.7;59.7
57799;BME280;43626;53.866;30.298;2023-08-08T03:55:38;1015.3;;;18.7;59.6
57799;BME280;43626;53.866;30.298;2023-08-08T04:00:34;1015.5;;;18.7;59.3
57799;BME280;43626;53.866;30.298;2023-08-08T04:06:02;1015.6;;;18.8;58.8
57799;BME280;43626;53.866;30.298;2023-08-08T04:10:28;1015.6;;;18.8;58.6
57799;BME280;43626;53.866;30.298;2023-08-08T04:16:02;1015.6;;;18.8;58.6
57799;BME280;43626;53.866;30.298;2023-08-08T04:20:36;1015.7;;;18.8;58.7
57799;BME280;43626;53.866;30.298;2023-08-08T04:25:46;1015.8;;;18.9;58.4
57799;BME280;43626;53.866;30.298;2023-08-08T04:30:46;1015.9;;;19;58.1
57799;BME280;43626;53.866;30.298;2023-08-08T04:35:52;1016;;;18.9;58
57799;BME280;43626;53.866;30.298;2023-08-08T04:40:42;1016;;;18.9;57.9
57799;BME280;43626;53.866;30.298;2023-08-08T04:45:28;1016;;;19;57.3
57799;BME280;43626;53.866;30.298;2023-08-08T04:50:46;1016;;;19;56.9
57799;BME280;43626;53.866;30.298;2023-08-08T04:55:36;1016.1;;;19;56.7
57799;BME280;43626;53.866;30.298;2023-08-08T05:00:22;1016.2;;;18.9;56.4
57799;BME280;43626;53.866;30.298;2023-08-08T05:05:52;1016.3;;;18.9;57
57799;BME280;43626;53.866;30.298;2023-08-08T05:10:36;1016.3;;;18.9;56.4
57799;BME280;43626;53.866;30.298;2023-08-08T05:15:22;1016.3;;;18.7;56.7
57799;BME280;43626;53.866;30.298;2023-08-08T05:20:38;1016.4;;;18.6;56.9
57799;BME280;43626;53.866;30.298;2023-08-08T05:26:00;1016.4;;;18.6;57.2
57799;BME280;43626;53.866;30.298;2023-08-08T05:30:36;1016.5;;;18.8;57.5
57799;BME280;43626;53.866;30.298;2023-08-08T05:35:36;1016.5;;;19.1;56.9
57799;BME280;43626;53.866;30.298;2023-08-08T05:40:42;1016.6;;;19.2;56.5
57799;BME280;43626;53.866;30.298;2023-08-08T05:45:52;1016.6;;;19.3;56.1
57799;BME280;43626;53.866;30.298;2023-08-08T05:50:22;1016.7;;;19.5;55.2
57799;BME280;43626;53.866;30.298;2023-08-08T05:55:28;1016.7;;;19.7;54.6
57799;BME280;43626;53.866;30.298;2023-08-08T06:01:00;1016.8;;;19.7;53.8
57799;BME280;43626;53.866;30.298;2023-08-08T06:05:44;1016.9;;;19.8;54.4
57799;BME280;43626;53.866;30.298;2023-08-08T06:10:36;1016.9;;;19.8;53.9
57799;BME280;43626;53.866;30.298;2023-08-08T06:15:46;1017;;;19.9;54
57799;BME280;43626;53.866;30.298;2023-08-08T06:21:00;1017.1;;;20;53.8
57799;BME280;43626;53.866;30.298;2023-08-08T06:25:32;1017.2;;;20.1;53.4
57799;BME280;43626;53.866;30.298;2023-08-08T06:30:30;1017.3;;;20.1;53.1
57799;BME280;43626;53.866;30.298;2023-08-08T06:35:52;1017.3;;;20.2;52.8
57799;BME280;43626;53.866;30.298;2023-08-08T06:40:52;1017.4;;;20.3;52.9
57799;BME280;43626;53.866;30.298;2023-08-08T06:45:58;1017.5;;;20.3;52.9
57799;BME280;43626;53.866;30.298;2023-08-08T06:50:42;1017.5;;;20.6;51.8
57799;BME280;43626;53.866;30.298;2023-08-08T06:55:36;1017.6;;;20.6;51.7
57799;BME280;43626;53.866;30.298;2023-08-08T07:00:34;1017.6;;;20.5;51.6
57799;BME280;43626;53.866;30.298;2023-08-08T07:06:00;1017.6;;;20.5;51.5
57799;BME280;43626;53.866;30.298;2023-08-08T07:10:36;1017.7;;;20.5;51.5
57799;BME280;43626;53.866;30.298;2023-08-08T07:15:50;1017.7;;;20.6;51.1
57799;BME280;43626;53.866;30.298;2023-08-08T07:20:58;1017.7;;;20.7;50.8
57799;BME280;43626;53.866;30.298;2023-08-08T07:25:52;1017.8;;;20.8;50.1
57799;BME280;43626;53.866;30.298;2023-08-08T07:30:22;1017.9;;;20.8;50
57799;BME280;43626;53.866;30.298;2023-08-08T07:35:38;1017.8;;;20.9;49.3
57799;BME280;43626;53.866;30.298;2023-08-08T07:41:02;1017.8;;;20.9;48.8
57799;BME280;43626;53.866;30.298;2023-08-08T07:46:02;1017.9;;;20.9;48.9
57799;BME280;43626;53.866;30.298;2023-08-08T07:50:52;1017.9;;;20.9;49.1
57799;BME280;43626;53.866;30.298;2023-08-08T07:56:02;1018;;;20.8;48.7
57799;BME280;43626;53.866;30.298;2023-08-08T08:00:52;1018;;;20.6;48.4
57799;BME280;43626;53.866;30.298;2023-08-08T08:05:36;1018;;;20.4;48.6
57799;BME280;43626;53.866;30.298;2023-08-08T08:10:52;1018;;;20.3;48.3
57799;BME280;43626;53.866;30.298;2023-08-08T08:16:02;1018.1;;;20.2;48.4
57799;BME280;43626;53.866;30.298;2023-08-08T08:20:46;1018.1;;;20.4;48.9
57799;BME280;43626;53.866;30.298;2023-08-08T08:25:50;1018.1;;;20.7;47.3
57799;BME280;43626;53.866;30.298;2023-08-08T08:31:03;1018.1;;;20.9;47.5
57799;BME280;43626;53.866;30.298;2023-08-08T08:35:22;1018.1;;;20.9;46.3
57799;BME280;43626;53.866;30.298;2023-08-08T08:40:22;1018.2;;;20.9;46.9
57799;BME280;43626;53.866;30.298;2023-08-08T08:45:37;1018.1;;;20.9;46.6
57799;BME280;43626;53.866;30.298;2023-08-08T08:50:47;1018.1;;;21;46.6
57799;BME280;43626;53.866;30.298;2023-08-08T08:55:46;1018.1;;;21.2;46.4
57799;BME280;43626;53.866;30.298;2023-08-08T09:00:30;1018.1;;;21.6;46.6
57799;BME280;43626;53.866;30.298;2023-08-08T09:05:22;1018.1;;;21.8;46.2
57799;BME280;43626;53.866;30.298;2023-08-08T09:10:44;1018.2;;;21.7;44.5
57799;BME280;43626;53.866;30.298;2023-08-08T09:15:36;1018.2;;;21.6;44.5
57799;BME280;43626;53.866;30.298;2023-08-08T09:20:36;1018.2;;;21.6;44.7
57799;BME280;43626;53.866;30.298;2023-08-08T09:25:36;1018.1;;;21.6;42.8
57799;BME280;43626;53.866;30.298;2023-08-08T09:31:00;1018.1;;;21.5;43.4
57799;BME280;43626;53.866;30.298;2023-08-08T09:36:02;1018.2;;;21.6;43.7
57799;BME280;43626;53.866;30.298;2023-08-08T09:40:36;1018.2;;;21.9;44.1
57799;BME280;43626;53.866;30.298;2023-08-08T09:45:35;1018.3;;;22.1;43.8
57799;BME280;43626;53.866;30.298;2023-08-08T09:50:38;1018.3;;;22.2;44.1
57799;BME280;43626;53.866;30.298;2023-08-08T09:55:52;1018.3;;;22.1;43.5
57799;BME280;43626;53.866;30.298;2023-08-08T10:00:30;1018.3;;;22;43.8
57799;BME280;43626;53.866;30.298;2023-08-08T10:05:52;1018.4;;;22.2;44.1
57799;BME280;43626;53.866;30.298;2023-08-08T10:11:02;1018.5;;;22.3;43.1
57799;BME280;43626;53.866;30.298;2023-08-08T10:15:36;1018.4;;;22.6;41.2
57799;BME280;43626;53.866;30.298;2023-08-08T10:20:23;1018.4;;;22.7;40.2
57799;BME280;43626;53.866;30.298;2023-08-08T10:26:02;1018.5;;;22.8;40.2
57799;BME280;43626;53.866;30.298;2023-08-08T10:30:41;1018.5;;;23.1;40.8
57799;BME280;43626;53.866;30.298;2023-08-08T10:35:34;1018.6;;;23.3;40.1
57799;BME280;43626;53.866;30.298;2023-08-08T10:40:23;1018.6;;;23.3;40.5
57799;BME280;43626;53.866;30.298;2023-08-08T10:45:52;1018.7;;;23.2;41
57799;BME280;43626;53.866;30.298;2023-08-08T10:50:22;1018.8;;;23;40.9
57799;BME280;43626;53.866;30.298;2023-08-08T10:55:42;1018.8;;;22.7;41
57799;BME280;43626;53.866;30.298;2023-08-08T11:01:02;1018.8;;;22.8;41.7
57799;BME280;43626;53.866;30.298;2023-08-08T11:05:52;1018.8;;;23;40.9
57799;BME280;43626;53.866;30.298;2023-08-08T11:10:28;1018.8;;;22.9;40.3
57799;BME280;43626;53.866;30.298;2023-08-08T11:15:42;1018.9;;;22.6;41.2
57799;BME280;43626;53.866;30.298;2023-08-08T11:21:09;1018.9;;;22.4;42.2
57799;BME280;43626;53.866;30.298;2023-08-08T11:25:30;1019;;;22.4;42.4
57799;BME280;43626;53.866;30.298;2023-08-08T11:30:45;1019;;;22.4;42.3
57799;BME280;43626;53.866;30.298;2023-08-08T11:35:52;1018.9;;;22.9;41.7
57799;BME280;43626;53.866;30.298;2023-08-08T11:40:25;1018.9;;;23.2;41.8
57799;BME280;43626;53.866;30.298;2023-08-08T11:46:02;1019;;;23.4;41
57799;BME280;43626;53.866;30.298;2023-08-08T11:50:23;1019;;;23.6;40.3
57799;BME280;43626;53.866;30.298;2023-08-08T11:55:29;1019;;;23.7;38.6
57799;BME280;43626;53.866;30.298;2023-08-08T12:00:36;1019;;;23.6;38.2
57799;BME280;43626;53.866;30.298;2023-08-08T12:06:02;1019;;;23.8;38.2
57799;BME280;43626;53.866;30.298;2023-08-08T12:10:52;1019;;;23.7;39.6
57799;BME280;43626;53.866;30.298;2023-08-08T12:15:52;1019;;;23.5;39.4
57799;BME280;43626;53.866;30.298;2023-08-08T12:20:52;1019.1;;;23.5;39.8
57799;BME280;43626;53.866;30.298;2023-08-08T12:25:52;1019.1;;;23.4;39.6
57799;BME280;43626;53.866;30.298;2023-08-08T12:30:22;1019.2;;;23.3;39.8
57799;BME280;43626;53.866;30.298;2023-08-08T12:35:52;1019.2;;;23.3;40.5
57799;BME280;43626;53.866;30.298;2023-08-08T12:41:02;1019.3;;;23.4;40.6
57799;BME280;43626;53.866;30.298;2023-08-08T12:45:46;1019.3;;;23.3;40.5
57799;BME280;43626;53.866;30.298;2023-08-08T12:50:22;1019.2;;;23.2;40.8
57799;BME280;43626;53.866;30.298;2023-08-08T12:56:02;1019.1;;;23.3;39.9
57799;BME280;43626;53.866;30.298;2023-08-08T13:00:28;1019.1;;;23.8;39.5
57799;BME280;43626;53.866;30.298;2023-08-08T13:05:30;1019.1;;;24.2;37.2
57799;BME280;43626;53.866;30.298;2023-08-08T13:10:30;1019;;;24.6;36.2
57799;BME280;43626;53.866;30.298;2023-08-08T13:15:46;1019;;;24.9;37
57799;BME280;43626;53.866;30.298;2023-08-08T13:20:46;1019;;;25.3;37.7
57799;BME280;43626;53.866;30.298;2023-08-08T13:25:46;1019;;;25.6;37.4
57799;BME280;43626;53.866;30.298;2023-08-08T13:30:42;1019;;;25.7;37.1
57799;BME280;43626;53.866;30.298;2023-08-08T13:35:52;1019;;;25.7;36.7
57799;BME280;43626;53.866;30.298;2023-08-08T13:40:22;1019.1;;;25.7;37.1
57799;BME280;43626;53.866;30.298;2023-08-08T13:45:29;1019.1;;;25.6;37
57799;BME280;43626;53.866;30.298;2023-08-08T13:50:36;1019.2;;;25.4;36.9
57799;BME280;43626;53.866;30.298;2023-08-08T13:55:46;1019.3;;;25.1;37.4
57799;BME280;43626;53.866;30.298;2023-08-08T14:01:00;1019.3;;;24.8;38.2
57799;BME280;43626;53.866;30.298;2023-08-08T14:05:22;1019.4;;;24.6;39.4
57799;BME280;43626;53.866;30.298;2023-08-08T14:10:22;1019.5;;;24.4;40.3
57799;BME280;43626;53.866;30.298;2023-08-08T14:15:46;1019.5;;;24.3;40.3
57799;BME280;43626;53.866;30.298;2023-08-08T14:20:38;1019.5;;;24.2;40.8
57799;BME280;43626;53.866;30.298;2023-08-08T14:25:34;1019.4;;;24.1;41.3
57799;BME280;43626;53.866;30.298;2023-08-08T14:30:52;1019.4;;;24;41.6
57799;BME280;43626;53.866;30.298;2023-08-08T14:36:00;1019.5;;;24;41.7
57799;BME280;43626;53.866;30.298;2023-08-08T14:40:28;1019.5;;;23.9;42.2
57799;BME280;43626;53.866;30.298;2023-08-08T14:45:36;1019.5;;;23.9;42.7
57799;BME280;43626;53.866;30.298;2023-08-08T14:51:01;1019.5;;;23.8;42.8
57799;BME280;43626;53.866;30.298;2023-08-08T14:55:36;1019.5;;;23.7;42.6
57799;BME280;43626;53.866;30.298;2023-08-08T15:00:36;1019.5;;;23.6;43.6
57799;BME280;43626;53.866;30.298;2023-08-08T15:05:37;1019.5;;;23.5;44.1
57799;BME280;43626;53.866;30.298;2023-08-08T15:10:52;1019.5;;;23.5;44.5
57799;BME280;43626;53.866;30.298;2023-08-08T15:15:22;1019.5;;;23.4;44.9
57799;BME280;43626;53.866;30.298;2023-08-08T15:20:22;1019.6;;;23.4;44.8
57799;BME280;43626;53.866;30.298;2023-08-08T15:26:00;1019.6;;;23.2;44.8
57799;BME280;43626;53.866;30.298;2023-08-08T15:30:52;1019.6;;;23.1;45.2
57799;BME280;43626;53.866;30.298;2023-08-08T15:35:30;1019.6;;;23;45.3
57799;BME280;43626;53.866;30.298;2023-08-08T15:40:22;1019.6;;;22.9;45.4
57799;BME280;43626;53.866;30.298;2023-08-08T15:46:00;1019.7;;;22.8;45.7
57799;BME280;43626;53.866;30.298;2023-08-08T15:50:22;1019.8;;;22.6;46
57799;BME280;43626;53.866;30.298;2023-08-08T15:55:36;1019.9;;;22.5;44.6
57799;BME280;43626;53.866;30.298;2023-08-08T16:00:52;1020;;;22.4;45
57799;BME280;43626;53.866;30.298;2023-08-08T16:05:52;1020;;;22.4;45.2
57799;BME280;43626;53.866;30.298;2023-08-08T16:11:01;1020.1;;;22.3;45.3
57799;BME280;43626;53.866;30.298;2023-08-08T16:15:42;1020.1;;;22.2;45.3
57799;BME280;43626;53.866;30.298;2023-08-08T16:20:42;1020.1;;;22.1;45.3
57799;BME280;43626;53.866;30.298;2023-08-08T16:25:36;1020.2;;;22;45.2
57799;BME280;43626;53.866;30.298;2023-08-08T16:31:00;1020.2;;;21.9;44.9
57799;BME280;43626;53.866;30.298;2023-08-08T16:36:00;1020.2;;;21.8;45.5
57799;BME280;43626;53.866;30.298;2023-08-08T16:41:00;1020.2;;;21.7;45.6
57799;BME280;43626;53.866;30.298;2023-08-08T16:46:00;1020.2;;;21.6;45.6
57799;BME280;43626;53.866;30.298;2023-08-08T16:50:52;1020.2;;;21.5;46
57799;BME280;43626;53.866;30.298;2023-08-08T16:55:32;1020.2;;;21.5;46.2
57799;BME280;43626;53.866;30.298;2023-08-08T17:00:52;1020.3;;;21.4;46.6
57799;BME280;43626;53.866;30.298;2023-08-08T17:06:02;1020.3;;;21.3;46.9
57799;BME280;43626;53.866;30.298;2023-08-08T17:10:46;1020.4;;;21.3;47.3
57799;BME280;43626;53.866;30.298;2023-08-08T17:15:28;1020.3;;;21.3;47.5
57799;BME280;43626;53.866;30.298;2023-08-08T17:21:02;1020.4;;;21.2;48.1
57799;BME280;43626;53.866;30.298;2023-08-08T17:25:46;1020.4;;;21.2;48.7
57799;BME280;43626;53.866;30.298;2023-08-08T17:30:29;1020.5;;;21.2;48.6
57799;BME280;43626;53.866;30.298;2023-08-08T17:35:22;1020.6;;;21.1;48.9
57799;BME280;43626;53.866;30.298;2023-08-08T17:40:44;1020.6;;;21.1;49.3
57799;BME280;43626;53.866;30.298;2023-08-08T17:46:02;1020.7;;;21;49.8
57799;BME280;43626;53.866;30.298;2023-08-08T17:50:52;1020.8;;;20.9;50.7
57799;BME280;43626;53.866;30.298;2023-08-08T17:55:36;1020.8;;;20.8;51.1
57799;BME280;43626;53.866;30.298;2023-08-08T18:00:23;1020.9;;;20.8;51.4
57799;BME280;43626;53.866;30.298;2023-08-08T18:05:23;1020.8;;;20.7;51.9
57799;BME280;43626;53.866;30.298;2023-08-08T18:10:31;1020.9;;;20.7;52
57799;BME280;43626;53.866;30.298;2023-08-08T18:15:29;1020.9;;;20.6;51.6
57799;BME280;43626;53.866;30.298;2023-08-08T18:20:32;1020.8;;;20.6;51.7
57799;BME280;43626;53.866;30.298;2023-08-08T18:26:03;1020.9;;;20.6;52.3
57799;BME280;43626;53.866;30.298;2023-08-08T18:30:42;1020.9;;;20.5;52.8
57799;BME280;43626;53.866;30.298;2023-08-08T18:35:52;1020.9;;;20.4;53.2
57799;BME280;43626;53.866;30.298;2023-08-08T18:40:46;1020.8;;;20.3;53.8
57799;BME280;43626;53.866;30.298;2023-08-08T18:45:31;1020.8;;;20.2;54.8
57799;BME280;43626;53.866;30.298;2023-08-08T18:50:36;1020.8;;;20.1;55.3
57799;BME280;43626;53.866;30.298;2023-08-08T18:55:52;1020.8;;;20.1;56.1
57799;BME280;43626;53.866;30.298;2023-08-08T19:01:03;1020.8;;;20;56.3
57799;BME280;43626;53.866;30.298;2023-08-08T19:05:39;1020.8;;;20;56.2
57799;BME280;43626;53.866;30.298;2023-08-08T19:10:43;1020.9;;;20;56.2
57799;BME280;43626;53.866;30.298;2023-08-08T19:16:03;1020.9;;;20;56.3
57799;BME280;43626;53.866;30.298;2023-08-08T19:20:29;1021;;;19.9;56.4
57799;BME280;43626;53.866;30.298;2023-08-08T19:25:37;1020.9;;;19.9;56.4
57799;BME280;43626;53.866;30.298;2023-08-08T19:30:43;1020.9;;;19.9;56.5
57799;BME280;43626;53.866;30.298;2023-08-08T19:35:53;1020.9;;;19.9;56.8
57799;BME280;43626;53.866;30.298;2023-08-08T19:40:23;1020.9;;;19.7;56.3
57799;BME280;43626;53.866;30.298;2023-08-08T19:45:29;1020.9;;;19.6;56.5
57799;BME280;43626;53.866;30.298;2023-08-08T19:51:03;1020.9;;;19.6;57.3
57799;BME280;43626;53.866;30.298;2023-08-08T19:55:53;1020.9;;;19.5;57.7
57799;BME280;43626;53.866;30.298;2023-08-08T20:00:37;1021;;;19.5;57.8
57799;BME280;43626;53.866;30.298;2023-08-08T20:05:23;1021;;;19.4;58.2
57799;BME280;43626;53.866;30.298;2023-08-08T20:11:03;1021;;;19.4;58.5
57799;BME280;43626;53.866;30.298;2023-08-08T20:15:23;1021;;;19.4;58.4
57799;BME280;43626;53.866;30.298;2023-08-08T20:20:23;1021;;;19.4;58.4
57799;BME280;43626;53.866;30.298;2023-08-08T20:25:53;1021;;;19.4;58.3
57799;BME280;43626;53.866;30.298;2023-08-08T20:30:53;1021.1;;;19.3;58.8
57799;BME280;43626;53.866;30.298;2023-08-08T20:36:03;1021;;;19.2;59.5
57799;BME280;43626;53.866;30.298;2023-08-08T20:40:47;1021.1;;;19.2;60
57799;BME280;43626;53.866;30.298;2023-08-08T20:45:23;1021.1;;;19.2;60.1
57799;BME280;43626;53.866;30.298;2023-08-08T20:50:29;1021.1;;;19.2;59.9
57799;BME280;43626;53.866;30.298;2023-08-08T20:56:03;1021.2;;;19.2;59.8
57799;BME280;43626;53.866;30.298;2023-08-08T21:00:53;1021.2;;;19.1;59.9
57799;BME280;43626;53.866;30.298;2023-08-08T21:05:53;1021.2;;;19.1;59.8
57799;BME280;43626;53.866;30.298;2023-08-08T21:11:03;1021.2;;;19;59.9
57799;BME280;43626;53.866;30.298;2023-08-08T21:15:53;1021.3;;;18.9;60.2
57799;BME280;43626;53.866;30.298;2023-08-08T21:20:23;1021.3;;;18.9;60.5
57799;BME280;43626;53.866;30.298;2023-08-08T21:25:29;1021.3;;;18.8;60.7
57799;BME280;43626;53.866;30.298;2023-08-08T21:31:03;1021.3;;;18.7;61.1
57799;BME280;43626;53.866;30.298;2023-08-08T21:36:03;1021.3;;;18.6;61
57799;BME280;43626;53.866;30.298;2023-08-08T21:41:03;1021.3;;;18.5;61.2
57799;BME280;43626;53.866;30.298;2023-08-08T21:45:48;1021.4;;;18.5;61.1
57799;BME280;43626;53.866;30.298;2023-08-08T21:50:53;1021.4;;;18.4;61
57799;BME280;43626;53.866;30.298;2023-08-08T21:55:29;1021.4;;;18.4;61.1
57799;BME280;43626;53.866;30.298;2023-08-08T22:00:53;1021.4;;;18.4;61.4
57799;BME280;43626;53.866;30.298;2023-08-08T22:06:03;1021.4;;;18.4;61.6
57799;BME280;43626;53.866;30.298;2023-08-08T22:10:47;1021.4;;;18.4;62.1
57799;BME280;43626;53.866;30.298;2023-08-08T22:15:23;1021.5;;;18.4;62.4
57799;BME280;43626;53.866;30.298;2023-08-08T22:21:03;1021.6;;;18.4;62.2
57799;BME280;43626;53.866;30.298;2023-08-08T22:25:23;1021.6;;;18.4;62
57799;BME280;43626;53.866;30.298;2023-08-08T22:30:41;1021.6;;;18.3;61.8
57799;BME280;43626;53.866;30.298;2023-08-08T22:35:37;1021.6;;;18.4;61.8
57799;BME280;43626;53.866;30.298;2023-08-08T22:40:47;1021.6;;;18.4;61.6
57799;BME280;43626;53.866;30.298;2023-08-08T22:45:41;1021.6;;;18.4;61.3
57799;BME280;43626;53.866;30.298;2023-08-08T22:50:53;1021.6;;;18.4;60.7
57799;BME280;43626;53.866;30.298;2023-08-08T22:55:23;1021.5;;;18.4;60.4
57799;BME280;43626;53.866;30.298;2023-08-08T23:00:37;1021.5;;;18.4;60.1
57799;BME280;43626;53.866;30.298;2023-08-08T23:05:23;1021.5;;;18.4;59.6
57799;BME280;43626;53.866;30.298;2023-08-08T23:10:37;1021.5;;;18.3;59.3
57799;BME280;43626;53.866;30.298;2023-08-08T23:15:37;1021.5;;;18.2;59
57799;BME280;43626;53.866;30.298;2023-08-08T23:20:47;1021.5;;;18.2;58.8
57799;BME280;43626;53.866;30.298;2023-08-08T23:26:03;1021.6;;;18.2;58.9
57799;BME280;43626;53.866;30.298;2023-08-08T23:30:23;1021.6;;;18.2;58.8
57799;BME280;43626;53.866;30.298;2023-08-08T23:35:37;1021.6;;;18.2;58.8
57799;BME280;43626;53.866;30.298;2023-08-08T23:40:47;1021.6;;;18.2;58.8
57799;BME280;43626;53.866;30.298;2023-08-08T23:45:37;1021.6;;;18.2;58.7
57799;BME280;43626;53.866;30.298;2023-08-08T23:50:45;1021.6;;;18.2;58.6
57799;BME280;43626;53.866;30.298;2023-08-08T23:55:51;1021.7;;;18.2;58.6
